Mount Wellington, Australia
Current Conditions -  °F | °C
As of 7:00 PM on Monday 24 Nov 2014 (Local Time) from YMHB Reporting Station
Light Rain Light Rain  
Wind Chill: 57°   Ceiling: 3500
Heat Index: 57°   Visibility: 6mi
Dew Point: 55°   Wind: 6mph
Humidity: 94%   Direction: 310°NW
Pressure: 29.56"   Gusts: NA
Location:  42.88°S, 147.23°E
Report Text: YMHB 240800Z 31005KT 9999 -RA FEW004 BKN035 14/13 Q1001
Loading
Personal Weather Stations






























Interactive Weather Map New forecast layout! Learn more

10-Day Weather Forecast

Advertisements
Track Severe Weather on mobile